sensor_id;sensor_type;location;lat;lon;timestamp;temperature;humidity
20858;DHT22;10589;53.636;10.012;2024-01-06T04:47:32;-0.60;99.90
20858;DHT22;10589;53.636;10.012;2024-01-06T04:49:58;-0.60;99.90
20858;DHT22;10589;53.636;10.012;2024-01-06T04:52:23;-0.60;99.90
20858;DHT22;10589;53.636;10.012;2024-01-06T04:54:49;-0.60;99.90
20858;DHT22;10589;53.636;10.012;2024-01-06T04:57:14;-0.60;99.90
20858;DHT22;10589;53.636;10.012;2024-01-06T04:59:41;-0.60;99.90
20858;DHT22;10589;53.636;10.012;2024-01-06T05:02:07;-0.60;99.90
20858;DHT22;10589;53.636;10.012;2024-01-06T05:04:32;-0.60;99.90
20858;DHT22;10589;53.636;10.012;2024-01-06T05:06:58;-0.60;99.90
20858;DHT22;10589;53.636;10.012;2024-01-06T05:09:25;-0.60;99.90
20858;DHT22;10589;53.636;10.012;2024-01-06T05:11:50;-0.60;99.90
20858;DHT22;10589;53.636;10.012;2024-01-06T05:14:16;-0.70;99.90
20858;DHT22;10589;53.636;10.012;2024-01-06T05:16:41;-0.60;99.90
20858;DHT22;10589;53.636;10.012;2024-01-06T05:19:07;-0.60;99.90
20858;DHT22;10589;53.636;10.012;2024-01-06T05:21:34;-0.50;99.90
20858;DHT22;10589;53.636;10.012;2024-01-06T05:24:00;-0.50;99.90
20858;DHT22;10589;53.636;10.012;2024-01-06T05:26:25;-0.50;99.90
20858;DHT22;10589;53.636;10.012;2024-01-06T05:28:52;-0.50;99.90
20858;DHT22;10589;53.636;10.012;2024-01-06T05:31:17;-0.50;99.90
20858;DHT22;10589;53.636;10.012;2024-01-06T05:33:43;-0.50;99.90
20858;DHT22;10589;53.636;10.012;2024-01-06T05:36:09;-0.50;99.90
20858;DHT22;10589;53.636;10.012;2024-01-06T05:38:35;-0.50;99.90
20858;DHT22;10589;53.636;10.012;2024-01-06T05:41:01;-0.50;99.90
20858;DHT22;10589;53.636;10.012;2024-01-06T05:43:27;-0.50;99.90
20858;DHT22;10589;53.636;10.012;2024-01-06T05:45:53;-0.50;99.90
20858;DHT22;10589;53.636;10.012;2024-01-06T05:48:18;-0.40;99.90
20858;DHT22;10589;53.636;10.012;2024-01-06T05:50:44;-0.40;99.90
20858;DHT22;10589;53.636;10.012;2024-01-06T05:53:09;-0.50;99.90
20858;DHT22;10589;53.636;10.012;2024-01-06T05:55:36;-0.50;99.90
20858;DHT22;10589;53.636;10.012;2024-01-06T05:58:01;-0.50;99.90
20858;DHT22;10589;53.636;10.012;2024-01-06T06:00:27;-0.50;99.90
20858;DHT22;10589;53.636;10.012;2024-01-06T06:02:53;-0.50;99.90
20858;DHT22;10589;53.636;10.012;2024-01-06T06:05:18;-0.50;99.90
20858;DHT22;10589;53.636;10.012;2024-01-06T06:07:45;-0.50;99.90
20858;DHT22;10589;53.636;10.012;2024-01-06T06:10:11;-0.50;99.90
20858;DHT22;10589;53.636;10.012;2024-01-06T06:12:37;-0.50;99.90
20858;DHT22;10589;53.636;10.012;2024-01-06T06:15:04;-0.50;99.90
20858;DHT22;10589;53.636;10.012;2024-01-06T06:17:30;-0.50;99.90
20858;DHT22;10589;53.636;10.012;2024-01-06T06:19:57;-0.50;99.90
20858;DHT22;10589;53.636;10.012;2024-01-06T06:22:23;-0.50;99.90
20858;DHT22;10589;53.636;10.012;2024-01-06T06:24:49;-0.50;99.90
20858;DHT22;10589;53.636;10.012;2024-01-06T06:27:14;-0.50;99.90
20858;DHT22;10589;53.636;10.012;2024-01-06T06:29:40;-0.50;99.90
20858;DHT22;10589;53.636;10.012;2024-01-06T06:32:05;-0.50;99.90
20858;DHT22;10589;53.636;10.012;2024-01-06T06:34:31;-0.40;99.90
20858;DHT22;10589;53.636;10.012;2024-01-06T06:36:57;-0.50;99.90
20858;DHT22;10589;53.636;10.012;2024-01-06T06:39:24;-0.50;99.90
20858;DHT22;10589;53.636;10.012;2024-01-06T06:41:49;-0.50;99.90
20858;DHT22;10589;53.636;10.012;2024-01-06T06:44:15;-0.50;99.90
20858;DHT22;10589;53.636;10.012;2024-01-06T06:46:40;-0.50;99.90
20858;DHT22;10589;53.636;10.012;2024-01-06T06:49:06;-0.50;99.90
20858;DHT22;10589;53.636;10.012;2024-01-06T06:51:32;-0.50;99.90
20858;DHT22;10589;53.636;10.012;2024-01-06T06:53:57;-0.50;99.90
20858;DHT22;10589;53.636;10.012;2024-01-06T06:56:23;-0.50;99.90
20858;DHT22;10589;53.636;10.012;2024-01-06T06:58:49;-0.60;99.90
20858;DHT22;10589;53.636;10.012;2024-01-06T07:01:15;-0.50;99.90
20858;DHT22;10589;53.636;10.012;2024-01-06T07:03:41;-0.50;99.90
20858;DHT22;10589;53.636;10.012;2024-01-06T07:06:07;-0.60;99.90
20858;DHT22;10589;53.636;10.012;2024-01-06T07:08:32;-0.60;99.90
20858;DHT22;10589;53.636;10.012;2024-01-06T07:10:58;-0.50;99.90
20858;DHT22;10589;53.636;10.012;2024-01-06T07:13:23;-0.50;99.90
20858;DHT22;10589;53.636;10.012;2024-01-06T07:15:49;-0.50;99.90
20858;DHT22;10589;53.636;10.012;2024-01-06T07:18:14;-0.60;99.90
20858;DHT22;10589;53.636;10.012;2024-01-06T07:20:40;-0.60;99.90
20858;DHT22;10589;53.636;10.012;2024-01-06T07:23:06;-0.60;99.90
20858;DHT22;10589;53.636;10.012;2024-01-06T07:25:31;-0.50;99.90
20858;DHT22;10589;53.636;10.012;2024-01-06T07:27:57;-0.60;99.90
20858;DHT22;10589;53.636;10.012;2024-01-06T07:30:23;-0.50;99.90
20858;DHT22;10589;53.636;10.012;2024-01-06T07:32:48;-0.50;99.90
20858;DHT22;10589;53.636;10.012;2024-01-06T07:35:15;-0.50;99.90
20858;DHT22;10589;53.636;10.012;2024-01-06T07:37:42;-0.50;99.90
20858;DHT22;10589;53.636;10.012;2024-01-06T07:40:08;-0.50;99.90
20858;DHT22;10589;53.636;10.012;2024-01-06T07:42:33;-0.50;99.90
20858;DHT22;10589;53.636;10.012;2024-01-06T07:44:59;-0.50;99.90
20858;DHT22;10589;53.636;10.012;2024-01-06T07:47:24;-0.50;99.90
20858;DHT22;10589;53.636;10.012;2024-01-06T07:49:50;-0.50;99.90
20858;DHT22;10589;53.636;10.012;2024-01-06T07:52:18;-0.50;99.90
20858;DHT22;10589;53.636;10.012;2024-01-06T07:54:43;-0.60;99.90
20858;DHT22;10589;53.636;10.012;2024-01-06T07:57:09;-0.50;99.90
20858;DHT22;10589;53.636;10.012;2024-01-06T07:59:36;-0.50;99.90
20858;DHT22;10589;53.636;10.012;2024-01-06T08:02:02;-0.50;99.90
20858;DHT22;10589;53.636;10.012;2024-01-06T08:04:27;-0.50;99.90
20858;DHT22;10589;53.636;10.012;2024-01-06T08:06:53;-0.50;99.90
20858;DHT22;10589;53.636;10.012;2024-01-06T08:09:18;-0.50;99.90
20858;DHT22;10589;53.636;10.012;2024-01-06T08:11:44;-0.50;99.90
20858;DHT22;10589;53.636;10.012;2024-01-06T08:14:13;-0.50;99.90
20858;DHT22;10589;53.636;10.012;2024-01-06T08:16:38;-0.50;99.90
20858;DHT22;10589;53.636;10.012;2024-01-06T08:19:04;-0.50;99.90
20858;DHT22;10589;53.636;10.012;2024-01-06T08:21:30;-0.50;99.90
20858;DHT22;10589;53.636;10.012;2024-01-06T08:23:55;-0.50;99.90
20858;DHT22;10589;53.636;10.012;2024-01-06T08:26:21;-0.50;99.90
20858;DHT22;10589;53.636;10.012;2024-01-06T08:28:47;-0.50;99.90
20858;DHT22;10589;53.636;10.012;2024-01-06T08:31:12;-0.50;99.90
20858;DHT22;10589;53.636;10.012;2024-01-06T08:33:38;-0.50;99.90
20858;DHT22;10589;53.636;10.012;2024-01-06T08:36:04;-0.40;99.90
20858;DHT22;10589;53.636;10.012;2024-01-06T08:38:30;-0.40;99.90
20858;DHT22;10589;53.636;10.012;2024-01-06T08:40:56;-0.40;99.90
20858;DHT22;10589;53.636;10.012;2024-01-06T08:43:21;-0.40;99.90
20858;DHT22;10589;53.636;10.012;2024-01-06T08:45:47;-0.50;99.90
20858;DHT22;10589;53.636;10.012;2024-01-06T08:48:13;-0.50;99.90
20858;DHT22;10589;53.636;10.012;2024-01-06T08:50:40;-0.50;99.90
20858;DHT22;10589;53.636;10.012;2024-01-06T08:53:06;-0.50;99.90
20858;DHT22;10589;53.636;10.012;2024-01-06T08:55:31;-0.50;99.90
20858;DHT22;10589;53.636;10.012;2024-01-06T08:57:57;-0.50;99.90
20858;DHT22;10589;53.636;10.012;2024-01-06T09:00:22;-0.50;99.90
20858;DHT22;10589;53.636;10.012;2024-01-06T09:02:48;-0.50;99.90
20858;DHT22;10589;53.636;10.012;2024-01-06T09:05:14;-0.60;99.90
20858;DHT22;10589;53.636;10.012;2024-01-06T09:07:40;-0.60;99.90
20858;DHT22;10589;53.636;10.012;2024-01-06T09:10:05;-0.50;99.90
20858;DHT22;10589;53.636;10.012;2024-01-06T09:12:32;-0.50;99.90
20858;DHT22;10589;53.636;10.012;2024-01-06T09:14:57;-0.50;99.90
20858;DHT22;10589;53.636;10.012;2024-01-06T09:17:23;-0.50;99.90
20858;DHT22;10589;53.636;10.012;2024-01-06T09:19:48;-0.50;99.90
20858;DHT22;10589;53.636;10.012;2024-01-06T09:22:14;-0.50;99.90
20858;DHT22;10589;53.636;10.012;2024-01-06T09:24:40;-0.50;99.90
20858;DHT22;10589;53.636;10.012;2024-01-06T09:27:06;-0.50;99.90
20858;DHT22;10589;53.636;10.012;2024-01-06T09:29:31;-0.50;99.90
20858;DHT22;10589;53.636;10.012;2024-01-06T09:31:57;-0.50;99.90
20858;DHT22;10589;53.636;10.012;2024-01-06T09:34:22;-0.50;99.90
20858;DHT22;10589;53.636;10.012;2024-01-06T09:36:48;-0.50;99.90
20858;DHT22;10589;53.636;10.012;2024-01-06T09:39:13;-0.40;99.90
20858;DHT22;10589;53.636;10.012;2024-01-06T09:41:39;-0.50;99.90
20858;DHT22;10589;53.636;10.012;2024-01-06T09:44:05;-0.50;99.90
20858;DHT22;10589;53.636;10.012;2024-01-06T09:46:31;-0.60;99.90
20858;DHT22;10589;53.636;10.012;2024-01-06T09:48:57;-0.60;99.90
20858;DHT22;10589;53.636;10.012;2024-01-06T09:51:25;-0.50;99.90
20858;DHT22;10589;53.636;10.012;2024-01-06T09:54:00;-0.50;99.90
20858;DHT22;10589;53.636;10.012;2024-01-06T09:56:27;-0.50;99.90
20858;DHT22;10589;53.636;10.012;2024-01-06T09:58:54;-0.50;99.90
20858;DHT22;10589;53.636;10.012;2024-01-06T10:01:19;-0.50;99.90
20858;DHT22;10589;53.636;10.012;2024-01-06T10:03:45;-0.50;99.90
20858;DHT22;10589;53.636;10.012;2024-01-06T10:06:11;-0.50;99.90
20858;DHT22;10589;53.636;10.012;2024-01-06T10:08:37;-0.40;99.90
20858;DHT22;10589;53.636;10.012;2024-01-06T10:11:06;-0.40;99.90
20858;DHT22;10589;53.636;10.012;2024-01-06T10:13:33;-0.40;99.90
20858;DHT22;10589;53.636;10.012;2024-01-06T10:16:06;-0.40;99.90
20858;DHT22;10589;53.636;10.012;2024-01-06T10:18:32;-0.40;99.90
20858;DHT22;10589;53.636;10.012;2024-01-06T10:20:58;-0.40;99.90
20858;DHT22;10589;53.636;10.012;2024-01-06T10:23:26;-0.40;99.90
20858;DHT22;10589;53.636;10.012;2024-01-06T10:25:55;-0.40;99.90
20858;DHT22;10589;53.636;10.012;2024-01-06T10:28:22;-0.40;99.90
20858;DHT22;10589;53.636;10.012;2024-01-06T10:30:55;-0.40;99.90
20858;DHT22;10589;53.636;10.012;2024-01-06T10:33:25;-0.40;99.90
20858;DHT22;10589;53.636;10.012;2024-01-06T10:35:50;-0.40;99.90
20858;DHT22;10589;53.636;10.012;2024-01-06T10:38:17;-0.40;99.90
20858;DHT22;10589;53.636;10.012;2024-01-06T10:41:03;-0.40;99.90
20858;DHT22;10589;53.636;10.012;2024-01-06T10:43:33;-0.40;99.90
20858;DHT22;10589;53.636;10.012;2024-01-06T10:46:04;-0.40;99.90
20858;DHT22;10589;53.636;10.012;2024-01-06T10:48:34;-0.40;99.90
20858;DHT22;10589;53.636;10.012;2024-01-06T10:51:00;-0.40;99.90
20858;DHT22;10589;53.636;10.012;2024-01-06T10:53:27;-0.50;99.90
20858;DHT22;10589;53.636;10.012;2024-01-06T10:55:53;-0.40;99.90
20858;DHT22;10589;53.636;10.012;2024-01-06T10:58:19;-0.40;99.90
20858;DHT22;10589;53.636;10.012;2024-01-06T11:00:45;-0.40;99.90
20858;DHT22;10589;53.636;10.012;2024-01-06T11:03:13;-0.40;99.90
20858;DHT22;10589;53.636;10.012;2024-01-06T11:05:41;-0.40;99.90
20858;DHT22;10589;53.636;10.012;2024-01-06T11:08:07;-0.40;99.90
20858;DHT22;10589;53.636;10.012;2024-01-06T11:10:35;-0.40;99.90
20858;DHT22;10589;53.636;10.012;2024-01-06T11:13:12;-0.40;99.90
20858;DHT22;10589;53.636;10.012;2024-01-06T11:15:46;-0.40;99.90
20858;DHT22;10589;53.636;10.012;2024-01-06T11:18:31;-0.40;99.90
20858;DHT22;10589;53.636;10.012;2024-01-06T11:21:15;-0.40;99.90
20858;DHT22;10589;53.636;10.012;2024-01-06T11:24:11;-0.40;99.90
20858;DHT22;10589;53.636;10.012;2024-01-06T11:26:41;-0.40;99.90
20858;DHT22;10589;53.636;10.012;2024-01-06T11:29:07;-0.40;99.90
20858;DHT22;10589;53.636;10.012;2024-01-06T11:31:33;-0.40;99.90
20858;DHT22;10589;53.636;10.012;2024-01-06T11:34:16;-0.30;99.90
20858;DHT22;10589;53.636;10.012;2024-01-06T11:36:44;-0.20;99.90
20858;DHT22;10589;53.636;10.012;2024-01-06T11:39:34;-0.20;99.90
20858;DHT22;10589;53.636;10.012;2024-01-06T11:42:01;-0.30;99.90
20858;DHT22;10589;53.636;10.012;2024-01-06T11:44:28;-0.30;99.90
20858;DHT22;10589;53.636;10.012;2024-01-06T11:46:58;-0.30;99.90
20858;DHT22;10589;53.636;10.012;2024-01-06T11:49:26;-0.30;99.90
20858;DHT22;10589;53.636;10.012;2024-01-06T11:51:56;-0.40;99.90
20858;DHT22;10589;53.636;10.012;2024-01-06T11:54:22;-0.40;99.90
20858;DHT22;10589;53.636;10.012;2024-01-06T11:56:48;-0.40;99.90
20858;DHT22;10589;53.636;10.012;2024-01-06T11:59:14;-0.50;99.90
20858;DHT22;10589;53.636;10.012;2024-01-06T12:01:40;-0.50;99.90
20858;DHT22;10589;53.636;10.012;2024-01-06T12:04:06;-0.60;99.90
20858;DHT22;10589;53.636;10.012;2024-01-06T12:06:35;-0.50;99.90
20858;DHT22;10589;53.636;10.012;2024-01-06T12:09:08;-0.50;99.90
20858;DHT22;10589;53.636;10.012;2024-01-06T12:11:34;-0.50;99.90
20858;DHT22;10589;53.636;10.012;2024-01-06T12:14:00;-0.50;99.90
20858;DHT22;10589;53.636;10.012;2024-01-06T12:16:26;-0.50;99.90
20858;DHT22;10589;53.636;10.012;2024-01-06T12:18:55;-0.50;99.90
20858;DHT22;10589;53.636;10.012;2024-01-06T12:21:23;-0.50;99.90
20858;DHT22;10589;53.636;10.012;2024-01-06T12:23:49;-0.40;99.90
20858;DHT22;10589;53.636;10.012;2024-01-06T12:26:17;-0.50;99.90
20858;DHT22;10589;53.636;10.012;2024-01-06T12:28:46;-0.50;99.90
20858;DHT22;10589;53.636;10.012;2024-01-06T12:31:12;-0.50;99.90
20858;DHT22;10589;53.636;10.012;2024-01-06T12:33:42;-0.50;99.90
20858;DHT22;10589;53.636;10.012;2024-01-06T12:36:08;-0.60;99.90
20858;DHT22;10589;53.636;10.012;2024-01-06T12:38:34;-0.60;99.90
20858;DHT22;10589;53.636;10.012;2024-01-06T12:41:00;-0.60;99.90
20858;DHT22;10589;53.636;10.012;2024-01-06T12:43:26;-0.60;99.90
20858;DHT22;10589;53.636;10.012;2024-01-06T12:45:52;-0.60;99.90
20858;DHT22;10589;53.636;10.012;2024-01-06T12:48:19;-0.60;99.90
20858;DHT22;10589;53.636;10.012;2024-01-06T12:50:44;-0.60;99.90
20858;DHT22;10589;53.636;10.012;2024-01-06T12:53:10;-0.70;99.90
20858;DHT22;10589;53.636;10.012;2024-01-06T12:55:37;-0.60;99.90
20858;DHT22;10589;53.636;10.012;2024-01-06T12:58:03;-0.70;99.90
20858;DHT22;10589;53.636;10.012;2024-01-06T13:00:29;-0.70;99.90
20858;DHT22;10589;53.636;10.012;2024-01-06T13:02:56;-0.70;99.90
20858;DHT22;10589;53.636;10.012;2024-01-06T13:05:21;-0.60;99.90
20858;DHT22;10589;53.636;10.012;2024-01-06T13:07:48;-0.60;99.90
20858;DHT22;10589;53.636;10.012;2024-01-06T13:10:14;-0.50;99.90
20858;DHT22;10589;53.636;10.012;2024-01-06T13:12:40;-0.50;99.90
20858;DHT22;10589;53.636;10.012;2024-01-06T13:15:06;-0.50;99.90
20858;DHT22;10589;53.636;10.012;2024-01-06T13:17:39;-0.50;99.90
20858;DHT22;10589;53.636;10.012;2024-01-06T13:20:05;-0.50;99.90
20858;DHT22;10589;53.636;10.012;2024-01-06T13:22:31;-0.50;99.90
20858;DHT22;10589;53.636;10.012;2024-01-06T13:24:57;-0.50;99.90
20858;DHT22;10589;53.636;10.012;2024-01-06T13:27:24;-0.40;99.90
20858;DHT22;10589;53.636;10.012;2024-01-06T13:29:50;-0.50;99.90
20858;DHT22;10589;53.636;10.012;2024-01-06T13:32:17;-0.40;99.90
20858;DHT22;10589;53.636;10.012;2024-01-06T13:34:44;-0.40;99.90
20858;DHT22;10589;53.636;10.012;2024-01-06T13:37:10;-0.50;99.90
20858;DHT22;10589;53.636;10.012;2024-01-06T13:39:36;-0.50;99.90
20858;DHT22;10589;53.636;10.012;2024-01-06T13:42:02;-0.50;99.90
20858;DHT22;10589;53.636;10.012;2024-01-06T13:44:29;-0.40;99.90
20858;DHT22;10589;53.636;10.012;2024-01-06T13:46:54;-0.60;99.90
20858;DHT22;10589;53.636;10.012;2024-01-06T13:49:21;-0.60;99.90
20858;DHT22;10589;53.636;10.012;2024-01-06T13:51:47;-0.50;99.90
20858;DHT22;10589;53.636;10.012;2024-01-06T13:54:13;-0.60;99.90
20858;DHT22;10589;53.636;10.012;2024-01-06T13:56:39;-0.70;99.90
20858;DHT22;10589;53.636;10.012;2024-01-06T13:59:04;-0.60;99.90
20858;DHT22;10589;53.636;10.012;2024-01-06T14:01:30;-0.70;99.90
20858;DHT22;10589;53.636;10.012;2024-01-06T14:03:56;-0.70;99.90
20858;DHT22;10589;53.636;10.012;2024-01-06T14:06:25;-0.70;99.90
20858;DHT22;10589;53.636;10.012;2024-01-06T14:08:57;-0.70;99.90
20858;DHT22;10589;53.636;10.012;2024-01-06T14:11:24;-0.80;99.90
20858;DHT22;10589;53.636;10.012;2024-01-06T14:13:51;-0.70;99.90
20858;DHT22;10589;53.636;10.012;2024-01-06T14:16:17;-0.70;99.90
20858;DHT22;10589;53.636;10.012;2024-01-06T14:18:43;-0.70;99.90
20858;DHT22;10589;53.636;10.012;2024-01-06T14:21:10;-0.70;99.90
20858;DHT22;10589;53.636;10.012;2024-01-06T14:23:36;-0.80;99.90
20858;DHT22;10589;53.636;10.012;2024-01-06T14:26:02;-0.70;99.90
20858;DHT22;10589;53.636;10.012;2024-01-06T14:28:28;-0.80;99.90
20858;DHT22;10589;53.636;10.012;2024-01-06T14:30:53;-0.80;99.90
20858;DHT22;10589;53.636;10.012;2024-01-06T14:33:19;-0.80;99.90
20858;DHT22;10589;53.636;10.012;2024-01-06T14:35:45;-0.80;99.90
20858;DHT22;10589;53.636;10.012;2024-01-06T14:38:12;-0.70;99.90
20858;DHT22;10589;53.636;10.012;2024-01-06T14:40:38;-0.80;99.90
20858;DHT22;10589;53.636;10.012;2024-01-06T14:43:03;-0.80;99.90
20858;DHT22;10589;53.636;10.012;2024-01-06T14:45:30;-0.80;99.90
20858;DHT22;10589;53.636;10.012;2024-01-06T14:47:56;-0.90;99.90
20858;DHT22;10589;53.636;10.012;2024-01-06T14:50:21;-0.90;99.90
20858;DHT22;10589;53.636;10.012;2024-01-06T14:52:47;-0.80;99.90
20858;DHT22;10589;53.636;10.012;2024-01-06T14:55:12;-0.90;99.90
20858;DHT22;10589;53.636;10.012;2024-01-06T14:57:38;-0.80;99.90
20858;DHT22;10589;53.636;10.012;2024-01-06T15:00:05;-0.80;99.90
20858;DHT22;10589;53.636;10.012;2024-01-06T15:02:31;-0.70;99.90
20858;DHT22;10589;53.636;10.012;2024-01-06T15:04:56;-0.70;99.90
20858;DHT22;10589;53.636;10.012;2024-01-06T15:07:23;-0.70;99.90
20858;DHT22;10589;53.636;10.012;2024-01-06T15:09:49;-0.60;99.90
20858;DHT22;10589;53.636;10.012;2024-01-06T15:12:14;-0.70;99.90
20858;DHT22;10589;53.636;10.012;2024-01-06T15:14:41;-0.60;99.90
20858;DHT22;10589;53.636;10.012;2024-01-06T15:17:06;-0.60;99.90
20858;DHT22;10589;53.636;10.012;2024-01-06T15:19:32;-0.70;99.90
20858;DHT22;10589;53.636;10.012;2024-01-06T15:21:58;-0.70;99.90
20858;DHT22;10589;53.636;10.012;2024-01-06T15:24:24;-0.70;99.90
20858;DHT22;10589;53.636;10.012;2024-01-06T15:26:50;-0.70;99.90
20858;DHT22;10589;53.636;10.012;2024-01-06T15:29:20;-0.70;99.90
20858;DHT22;10589;53.636;10.012;2024-01-06T15:31:45;-0.70;99.90
20858;DHT22;10589;53.636;10.012;2024-01-06T15:34:12;-0.60;99.90
20858;DHT22;10589;53.636;10.012;2024-01-06T15:36:37;-0.70;99.90
20858;DHT22;10589;53.636;10.012;2024-01-06T15:39:03;-0.70;99.90
20858;DHT22;10589;53.636;10.012;2024-01-06T15:41:28;-0.70;99.90
20858;DHT22;10589;53.636;10.012;2024-01-06T15:43:54;-0.80;99.90
20858;DHT22;10589;53.636;10.012;2024-01-06T15:46:19;-0.80;99.90
20858;DHT22;10589;53.636;10.012;2024-01-06T15:48:46;-0.70;99.90
20858;DHT22;10589;53.636;10.012;2024-01-06T15:51:11;-0.70;99.90
20858;DHT22;10589;53.636;10.012;2024-01-06T15:53:37;-0.70;99.90
20858;DHT22;10589;53.636;10.012;2024-01-06T15:56:03;-0.70;99.90
20858;DHT22;10589;53.636;10.012;2024-01-06T15:58:29;-0.80;99.90
20858;DHT22;10589;53.636;10.012;2024-01-06T16:00:54;-0.70;99.90
20858;DHT22;10589;53.636;10.012;2024-01-06T16:03:20;-0.80;99.90
20858;DHT22;10589;53.636;10.012;2024-01-06T16:05:46;-0.80;99.90
20858;DHT22;10589;53.636;10.012;2024-01-06T16:08:11;-0.80;99.90
20858;DHT22;10589;53.636;10.012;2024-01-06T16:10:38;-0.80;99.90
20858;DHT22;10589;53.636;10.012;2024-01-06T16:13:04;-0.80;99.90
20858;DHT22;10589;53.636;10.012;2024-01-06T16:15:30;-0.70;99.90
20858;DHT22;10589;53.636;10.012;2024-01-06T16:17:55;-0.70;99.90
20858;DHT22;10589;53.636;10.012;2024-01-06T16:20:22;-0.70;99.90
20858;DHT22;10589;53.636;10.012;2024-01-06T16:22:47;-0.70;99.90
20858;DHT22;10589;53.636;10.012;2024-01-06T16:25:16;-0.60;99.90
20858;DHT22;10589;53.636;10.012;2024-01-06T16:27:41;-0.60;99.90
20858;DHT22;10589;53.636;10.012;2024-01-06T16:30:08;-0.70;99.90
20858;DHT22;10589;53.636;10.012;2024-01-06T16:32:33;-0.70;99.90
20858;DHT22;10589;53.636;10.012;2024-01-06T16:34:59;-0.70;99.90
20858;DHT22;10589;53.636;10.012;2024-01-06T16:37:25;-0.70;99.90
20858;DHT22;10589;53.636;10.012;2024-01-06T16:39:51;-0.80;99.90
20858;DHT22;10589;53.636;10.012;2024-01-06T16:42:18;-0.70;99.90
20858;DHT22;10589;53.636;10.012;2024-01-06T16:44:45;-0.80;99.90
20858;DHT22;10589;53.636;10.012;2024-01-06T16:47:12;-0.80;99.90
20858;DHT22;10589;53.636;10.012;2024-01-06T16:49:37;-0.80;99.90
20858;DHT22;10589;53.636;10.012;2024-01-06T16:52:03;-0.80;99.90
20858;DHT22;10589;53.636;10.012;2024-01-06T16:54:29;-0.80;99.90
20858;DHT22;10589;53.636;10.012;2024-01-06T16:56:56;-0.80;99.90
20858;DHT22;10589;53.636;10.012;2024-01-06T16:59:25;-0.80;99.90
20858;DHT22;10589;53.636;10.012;2024-01-06T17:01:55;-0.80;99.90
20858;DHT22;10589;53.636;10.012;2024-01-06T17:04:24;-0.70;99.90
20858;DHT22;10589;53.636;10.012;2024-01-06T17:06:49;-0.80;99.90
20858;DHT22;10589;53.636;10.012;2024-01-06T17:09:15;-0.70;99.90
20858;DHT22;10589;53.636;10.012;2024-01-06T17:11:41;-0.70;99.90
20858;DHT22;10589;53.636;10.012;2024-01-06T17:14:06;-0.70;99.90
20858;DHT22;10589;53.636;10.012;2024-01-06T17:16:32;-0.70;99.90
20858;DHT22;10589;53.636;10.012;2024-01-06T17:18:58;-0.70;99.90
20858;DHT22;10589;53.636;10.012;2024-01-06T17:21:23;-0.80;99.90
20858;DHT22;10589;53.636;10.012;2024-01-06T17:23:49;-0.80;99.90
20858;DHT22;10589;53.636;10.012;2024-01-06T17:26:18;-0.80;99.90
20858;DHT22;10589;53.636;10.012;2024-01-06T17:28:43;-0.80;99.90
20858;DHT22;10589;53.636;10.012;2024-01-06T17:31:09;-0.80;99.90
20858;DHT22;10589;53.636;10.012;2024-01-06T17:33:35;-0.70;99.90
20858;DHT22;10589;53.636;10.012;2024-01-06T17:36:00;-0.70;99.90
20858;DHT22;10589;53.636;10.012;2024-01-06T17:38:26;-0.80;99.90
20858;DHT22;10589;53.636;10.012;2024-01-06T17:40:51;-0.80;99.90
20858;DHT22;10589;53.636;10.012;2024-01-06T17:43:17;-0.80;99.90
20858;DHT22;10589;53.636;10.012;2024-01-06T17:45:43;-0.80;99.90
20858;DHT22;10589;53.636;10.012;2024-01-06T17:48:08;-0.80;99.90
20858;DHT22;10589;53.636;10.012;2024-01-06T17:50:36;-0.80;99.90
20858;DHT22;10589;53.636;10.012;2024-01-06T17:53:02;-0.80;99.90
20858;DHT22;10589;53.636;10.012;2024-01-06T17:55:27;-0.80;99.90
20858;DHT22;10589;53.636;10.012;2024-01-06T17:57:54;-0.80;99.90
20858;DHT22;10589;53.636;10.012;2024-01-06T18:00:20;-0.80;99.90
20858;DHT22;10589;53.636;10.012;2024-01-06T18:02:46;-0.80;99.90
20858;DHT22;10589;53.636;10.012;2024-01-06T18:05:13;-0.80;99.90
20858;DHT22;10589;53.636;10.012;2024-01-06T18:07:38;-0.80;99.90
20858;DHT22;10589;53.636;10.012;2024-01-06T18:10:04;-0.80;99.90
20858;DHT22;10589;53.636;10.012;2024-01-06T18:12:31;-0.80;99.90
20858;DHT22;10589;53.636;10.012;2024-01-06T18:14:57;-0.80;99.90
20858;DHT22;10589;53.636;10.012;2024-01-06T18:17:24;-0.80;99.90
20858;DHT22;10589;53.636;10.012;2024-01-06T18:19:50;-0.80;99.90
20858;DHT22;10589;53.636;10.012;2024-01-06T18:22:15;-0.90;99.90
20858;DHT22;10589;53.636;10.012;2024-01-06T18:24:41;-0.80;99.90
20858;DHT22;10589;53.636;10.012;2024-01-06T18:27:07;-0.80;99.90
20858;DHT22;10589;53.636;10.012;2024-01-06T18:29:34;-0.80;99.90
20858;DHT22;10589;53.636;10.012;2024-01-06T18:32:00;-0.80;99.90
20858;DHT22;10589;53.636;10.012;2024-01-06T18:34:26;-0.70;99.90
20858;DHT22;10589;53.636;10.012;2024-01-06T18:36:52;-0.70;99.90
20858;DHT22;10589;53.636;10.012;2024-01-06T18:39:17;-0.70;99.90
20858;DHT22;10589;53.636;10.012;2024-01-06T18:41:44;-0.70;99.90
20858;DHT22;10589;53.636;10.012;2024-01-06T18:44:09;-0.70;99.90
20858;DHT22;10589;53.636;10.012;2024-01-06T18:46:36;-0.60;99.90
20858;DHT22;10589;53.636;10.012;2024-01-06T18:49:02;-0.70;99.90
20858;DHT22;10589;53.636;10.012;2024-01-06T18:51:27;-0.60;99.90
20858;DHT22;10589;53.636;10.012;2024-01-06T18:53:54;-0.70;99.90
20858;DHT22;10589;53.636;10.012;2024-01-06T18:56:21;-0.70;99.90
20858;DHT22;10589;53.636;10.012;2024-01-06T18:58:48;-0.70;99.90
20858;DHT22;10589;53.636;10.012;2024-01-06T19:01:13;-0.70;99.90
20858;DHT22;10589;53.636;10.012;2024-01-06T19:03:39;-0.70;99.90
20858;DHT22;10589;53.636;10.012;2024-01-06T19:06:08;-0.70;99.90
20858;DHT22;10589;53.636;10.012;2024-01-06T19:08:34;-0.70;99.90
20858;DHT22;10589;53.636;10.012;2024-01-06T19:10:59;-0.70;99.90
20858;DHT22;10589;53.636;10.012;2024-01-06T19:13:26;-0.70;99.90
20858;DHT22;10589;53.636;10.012;2024-01-06T19:15:52;-0.70;99.90
20858;DHT22;10589;53.636;10.012;2024-01-06T19:18:17;-0.70;99.90
20858;DHT22;10589;53.636;10.012;2024-01-06T19:20:43;-0.70;99.90
20858;DHT22;10589;53.636;10.012;2024-01-06T19:23:11;-0.70;99.90
20858;DHT22;10589;53.636;10.012;2024-01-06T19:25:37;-0.70;99.90
20858;DHT22;10589;53.636;10.012;2024-01-06T19:28:03;-0.70;99.90
20858;DHT22;10589;53.636;10.012;2024-01-06T19:30:28;-0.70;99.90
20858;DHT22;10589;53.636;10.012;2024-01-06T19:32:54;-0.70;99.90
20858;DHT22;10589;53.636;10.012;2024-01-06T19:35:20;-0.70;99.90
20858;DHT22;10589;53.636;10.012;2024-01-06T19:37:45;-0.70;99.90
20858;DHT22;10589;53.636;10.012;2024-01-06T19:40:11;-0.70;99.90
20858;DHT22;10589;53.636;10.012;2024-01-06T19:42:37;-0.70;99.90
20858;DHT22;10589;53.636;10.012;2024-01-06T19:45:03;-0.70;99.90
20858;DHT22;10589;53.636;10.012;2024-01-06T19:47:30;-0.70;99.90
20858;DHT22;10589;53.636;10.012;2024-01-06T19:49:56;-0.70;99.90
20858;DHT22;10589;53.636;10.012;2024-01-06T19:52:22;-0.70;99.90
20858;DHT22;10589;53.636;10.012;2024-01-06T19:54:47;-0.70;99.90
20858;DHT22;10589;53.636;10.012;2024-01-06T19:57:15;-0.80;99.90